createdAt,value
2023-05-25T00:01:35.420Z,16.21
2023-05-25T00:04:06.254Z,16.12
2023-05-25T00:06:41.387Z,16.27
2023-05-25T00:09:21.409Z,16.07
2023-05-25T00:11:55.221Z,16.06
2023-05-25T00:14:26.220Z,15.90
2023-05-25T00:16:56.506Z,15.95
2023-05-25T00:19:34.758Z,16.08
2023-05-25T00:22:03.285Z,16.26
2023-05-25T00:24:35.131Z,16.28
2023-05-25T00:27:11.561Z,16.11
2023-05-25T00:29:57.287Z,16.06
2023-05-25T00:32:30.696Z,16.05
2023-05-25T00:35:01.421Z,15.98
2023-05-25T00:37:31.564Z,15.70
2023-05-25T00:40:02.353Z,15.89
2023-05-25T00:42:33.515Z,16.18
2023-05-25T00:45:04.386Z,15.79
2023-05-25T00:47:38.085Z,15.81
2023-05-25T00:50:10.203Z,15.57
2023-05-25T00:52:39.862Z,15.92
2023-05-25T00:55:11.696Z,15.85
2023-05-25T00:57:44.040Z,15.57
2023-05-25T01:00:25.341Z,15.57
2023-05-25T01:02:57.004Z,15.84
2023-05-25T01:05:30.430Z,15.86
2023-05-25T01:08:05.874Z,15.71
2023-05-25T01:10:37.397Z,15.66
2023-05-25T01:13:11.208Z,15.47
2023-05-25T01:15:43.308Z,15.53
2023-05-25T01:18:17.655Z,15.75
2023-05-25T01:21:02.308Z,15.52
2023-05-25T01:23:34.920Z,15.48
2023-05-25T01:26:08.231Z,15.63
2023-05-25T01:28:43.567Z,15.35
2023-05-25T01:31:12.275Z,15.35
2023-05-25T01:33:41.614Z,15.54
2023-05-25T01:36:26.888Z,15.81
2023-05-25T01:39:06.542Z,15.74
2023-05-25T01:41:44.656Z,15.56
2023-05-25T01:44:22.137Z,15.56
2023-05-25T01:46:59.692Z,15.46
2023-05-25T01:49:42.365Z,15.47
2023-05-25T01:52:23.888Z,15.56
2023-05-25T01:54:58.739Z,15.40
2023-05-25T01:57:35.536Z,15.30
2023-05-25T02:00:10.255Z,15.46
2023-05-25T02:02:46.091Z,15.45
2023-05-25T02:05:17.782Z,15.39
2023-05-25T02:07:53.510Z,15.39
2023-05-25T02:10:30.712Z,15.46
2023-05-25T02:13:03.837Z,15.27
2023-05-25T02:15:37.303Z,15.30
2023-05-25T02:18:18.087Z,15.18
2023-05-25T02:20:47.959Z,15.32
2023-05-25T02:23:19.076Z,15.30
2023-05-25T02:25:55.976Z,15.20
2023-05-25T02:28:28.707Z,15.34
2023-05-25T02:31:03.115Z,15.29
2023-05-25T02:33:31.477Z,15.31
2023-05-25T02:36:03.150Z,15.08
2023-05-25T02:38:35.674Z,15.45
2023-05-25T02:41:05.340Z,15.36
2023-05-25T02:43:39.957Z,15.17
2023-05-25T02:46:14.367Z,15.17
2023-05-25T02:48:44.597Z,15.11
2023-05-25T02:51:16.353Z,15.17
2023-05-25T02:53:49.327Z,15.10
2023-05-25T02:56:18.808Z,15.24
2023-05-25T02:58:49.648Z,15.10
2023-05-25T03:01:56.373Z,15.14
2023-05-25T03:04:27.394Z,14.86
2023-05-25T03:07:02.852Z,15.05
2023-05-25T03:09:32.676Z,15.02
2023-05-25T03:12:02.725Z,15.05
2023-05-25T03:14:36.242Z,15.04
2023-05-25T03:17:09.172Z,14.82
2023-05-25T03:19:49.784Z,15.04
2023-05-25T03:22:19.652Z,15.02
2023-05-25T03:24:52.016Z,14.64
2023-05-25T03:27:24.017Z,14.83
2023-05-25T03:29:57.361Z,14.84
2023-05-25T03:32:38.623Z,14.78
2023-05-25T03:35:16.368Z,14.70
2023-05-25T03:37:50.612Z,14.78
2023-05-25T03:40:21.062Z,15.03
2023-05-25T03:42:52.805Z,14.98
2023-05-25T03:45:24.979Z,14.84
2023-05-25T03:47:56.038Z,14.83
2023-05-25T03:50:28.404Z,14.63
2023-05-25T03:53:03.655Z,14.86
2023-05-25T03:55:34.734Z,14.98
2023-05-25T03:58:04.517Z,14.93
2023-05-25T04:00:33.588Z,14.58
2023-05-25T04:03:09.162Z,14.95
2023-05-25T04:05:42.586Z,15.00
2023-05-25T04:08:10.968Z,14.93
2023-05-25T04:10:46.466Z,14.75
2023-05-25T04:13:23.827Z,14.94
2023-05-25T04:15:53.239Z,14.98
2023-05-25T04:18:31.264Z,14.84
2023-05-25T04:21:05.183Z,14.78
2023-05-25T04:23:34.748Z,15.00
2023-05-25T04:26:06.126Z,15.27
2023-05-25T04:28:37.552Z,15.00
2023-05-25T04:31:23.122Z,15.38
2023-05-25T04:34:22.857Z,15.31
2023-05-25T04:37:09.192Z,15.32
2023-05-25T04:39:39.763Z,15.52
2023-05-25T04:42:20.128Z,15.53
2023-05-25T04:44:53.281Z,15.62
2023-05-25T04:47:34.773Z,15.58
2023-05-25T04:50:04.299Z,15.59
2023-05-25T04:52:33.706Z,15.55
2023-05-25T04:55:02.916Z,15.60
2023-05-25T04:57:42.252Z,15.76
2023-05-25T05:00:15.457Z,15.59
2023-05-25T05:02:49.236Z,15.86
2023-05-25T05:05:22.440Z,15.97
2023-05-25T05:07:51.948Z,15.87
2023-05-25T05:10:23.971Z,15.88
2023-05-25T05:13:02.171Z,15.75
2023-05-25T05:15:32.565Z,15.84
2023-05-25T05:18:02.359Z,15.83
2023-05-25T05:20:30.599Z,15.93
2023-05-25T05:23:01.160Z,16.00
2023-05-25T05:25:32.874Z,15.99
2023-05-25T05:28:04.293Z,15.96
2023-05-25T05:30:50.540Z,15.70
2023-05-25T05:33:20.216Z,15.88
2023-05-25T05:35:58.136Z,16.04
2023-05-25T05:38:26.940Z,15.93
2023-05-25T05:41:04.303Z,16.05
2023-05-25T05:43:36.366Z,16.20
2023-05-25T05:46:06.960Z,15.84
2023-05-25T05:48:36.533Z,16.01
2023-05-25T05:51:10.051Z,16.10
2023-05-25T05:53:39.864Z,15.77
2023-05-25T05:56:20.571Z,15.83
2023-05-25T05:58:56.940Z,15.93
2023-05-25T06:01:27.553Z,15.81
2023-05-25T06:04:04.163Z,16.02
2023-05-25T06:06:34.919Z,16.07
2023-05-25T06:09:06.778Z,16.29
2023-05-25T06:11:39.890Z,16.28
2023-05-25T06:14:16.461Z,16.07
2023-05-25T06:16:55.678Z,16.25
2023-05-25T06:19:28.838Z,16.15
2023-05-25T06:22:01.314Z,16.05
2023-05-25T06:24:31.325Z,16.14
2023-05-25T06:27:00.564Z,16.17
2023-05-25T06:29:36.854Z,16.32
2023-05-25T06:32:10.998Z,16.49
2023-05-25T06:34:43.510Z,16.33
2023-05-25T06:37:15.724Z,15.98
2023-05-25T06:39:48.738Z,16.26
2023-05-25T06:42:22.684Z,16.26
2023-05-25T06:45:03.696Z,16.71
2023-05-25T06:47:35.364Z,16.45
2023-05-25T06:50:06.453Z,16.36
2023-05-25T06:52:38.040Z,16.46
2023-05-25T06:55:08.531Z,16.36
2023-05-25T06:57:42.705Z,16.46
2023-05-25T07:00:26.932Z,16.61
2023-05-25T07:02:58.854Z,16.73
2023-05-25T07:05:32.652Z,16.64
2023-05-25T07:08:03.221Z,16.66
2023-05-25T07:10:32.655Z,16.71
2023-05-25T07:13:05.815Z,16.43
2023-05-25T07:15:36.051Z,16.65
2023-05-25T07:18:06.891Z,16.74
2023-05-25T07:20:36.792Z,16.72
2023-05-25T07:23:07.765Z,16.89
2023-05-25T07:25:46.781Z,17.04
2023-05-25T07:28:18.567Z,16.89
2023-05-25T07:30:52.944Z,17.33
2023-05-25T07:33:22.414Z,17.34
2023-05-25T07:35:53.169Z,17.34
2023-05-25T07:38:24.166Z,17.14
2023-05-25T07:41:09.923Z,17.17
2023-05-25T07:43:39.645Z,17.28
2023-05-25T07:46:25.518Z,17.37
2023-05-25T07:49:04.328Z,17.18
2023-05-25T07:51:38.302Z,17.14
2023-05-25T07:54:15.300Z,17.59
2023-05-25T07:56:43.757Z,17.45
2023-05-25T07:59:20.838Z,17.42
2023-05-25T08:02:00.230Z,17.46
2023-05-25T08:04:34.042Z,17.45
2023-05-25T08:07:02.830Z,17.76
2023-05-25T08:09:34.121Z,17.51
2023-05-25T08:12:30.145Z,17.46
2023-05-25T08:14:55.230Z,17.97
2023-05-25T08:17:27.504Z,17.75
2023-05-25T08:19:58.430Z,17.68
2023-05-25T08:22:27.558Z,17.76
2023-05-25T08:25:08.613Z,17.93
2023-05-25T08:27:39.438Z,17.89
2023-05-25T08:30:11.174Z,17.89
2023-05-25T08:32:46.117Z,18.09
2023-05-25T08:35:28.279Z,17.96
2023-05-25T08:37:58.534Z,18.23
2023-05-25T08:40:29.937Z,18.19
2023-05-25T08:43:02.479Z,18.13
2023-05-25T08:45:36.749Z,18.04
2023-05-25T08:48:39.925Z,18.09
2023-05-25T08:51:19.723Z,18.41
2023-05-25T08:53:51.167Z,18.47
2023-05-25T08:56:24.541Z,18.51
2023-05-25T08:59:00.488Z,18.55
2023-05-25T09:01:33.465Z,18.37
2023-05-25T09:04:14.125Z,18.69
2023-05-25T09:06:54.227Z,18.78
2023-05-25T09:09:37.161Z,19.06
2023-05-25T09:12:07.329Z,18.99
2023-05-25T09:14:44.764Z,18.91
2023-05-25T09:17:24.551Z,19.19
2023-05-25T09:19:59.776Z,18.90
2023-05-25T09:22:29.131Z,19.07
2023-05-25T09:24:58.658Z,18.73
2023-05-25T09:27:27.529Z,18.94
2023-05-25T09:30:00.128Z,19.23
2023-05-25T09:32:31.455Z,19.14
2023-05-25T09:35:09.958Z,19.21
2023-05-25T09:37:41.997Z,19.20
2023-05-25T09:40:17.408Z,19.37
2023-05-25T09:42:46.810Z,19.54
2023-05-25T09:45:23.786Z,19.54
2023-05-25T09:47:56.099Z,19.85
2023-05-25T09:50:28.948Z,19.63
2023-05-25T09:53:01.163Z,19.73
2023-05-25T09:55:40.409Z,19.66
2023-05-25T09:58:19.881Z,19.76
2023-05-25T10:01:01.044Z,19.62
2023-05-25T10:03:34.066Z,19.91
2023-05-25T10:06:05.774Z,19.70
2023-05-25T10:08:42.094Z,20.05
2023-05-25T10:11:19.084Z,20.00
2023-05-25T10:13:55.908Z,20.16
2023-05-25T10:16:29.418Z,20.41
2023-05-25T10:19:05.686Z,20.10
2023-05-25T10:21:39.273Z,20.04
2023-05-25T10:24:24.532Z,20.06
2023-05-25T10:27:14.676Z,20.11
2023-05-25T10:29:58.291Z,20.37
2023-05-25T10:32:34.022Z,20.41
2023-05-25T10:35:05.434Z,20.63
2023-05-25T10:37:36.109Z,20.83
2023-05-25T10:40:10.122Z,20.65
2023-05-25T10:42:41.487Z,20.91
2023-05-25T10:45:19.273Z,20.74
2023-05-25T10:47:48.833Z,20.97
2023-05-25T10:50:27.467Z,20.83
2023-05-25T10:53:03.931Z,20.57
2023-05-25T10:55:44.146Z,20.65
2023-05-25T10:58:22.865Z,20.76
2023-05-25T11:01:05.785Z,21.03
2023-05-25T11:03:57.396Z,20.59
2023-05-25T11:07:02.554Z,20.40
2023-05-25T11:09:38.839Z,20.98
2023-05-25T11:12:16.889Z,21.16
2023-05-25T11:14:47.912Z,21.18
2023-05-25T11:17:23.419Z,21.24
2023-05-25T11:20:00.502Z,20.99
2023-05-25T11:22:37.461Z,21.65
2023-05-25T11:25:40.098Z,21.12
2023-05-25T11:28:13.847Z,21.28
2023-05-25T11:30:51.225Z,21.56
2023-05-25T11:33:29.800Z,21.89
2023-05-25T11:36:00.356Z,22.31
2023-05-25T11:38:56.306Z,22.47
2023-05-25T11:41:44.091Z,21.87
2023-05-25T11:44:20.505Z,21.73
2023-05-25T11:46:52.321Z,21.94
2023-05-25T11:49:24.960Z,22.22
2023-05-25T11:52:01.805Z,22.34
2023-05-25T11:54:33.464Z,22.26
2023-05-25T11:57:11.856Z,22.51
2023-05-25T11:59:42.207Z,22.73
2023-05-25T12:02:15.429Z,22.82
2023-05-25T12:04:56.923Z,22.45
2023-05-25T12:07:36.398Z,22.93
2023-05-25T12:10:13.448Z,22.79
2023-05-25T12:13:00.685Z,23.01
2023-05-25T12:15:31.273Z,23.62
2023-05-25T12:18:02.062Z,23.62
2023-05-25T12:20:31.387Z,23.01
2023-05-25T12:23:11.533Z,22.94
2023-05-25T12:25:50.422Z,23.43
2023-05-25T12:28:28.608Z,23.71
2023-05-25T12:31:02.948Z,23.31
2023-05-25T12:33:32.313Z,23.58
2023-05-25T12:36:03.187Z,24.05
2023-05-25T12:38:34.464Z,23.41
2023-05-25T12:41:19.343Z,23.60
2023-05-25T12:43:55.950Z,23.36
2023-05-25T12:46:34.371Z,23.27
2023-05-25T12:49:03.730Z,23.14
2023-05-25T12:51:39.623Z,22.90
2023-05-25T12:54:08.976Z,23.11
2023-05-25T12:56:57.927Z,23.65
2023-05-25T12:59:40.173Z,23.39
2023-05-25T13:02:12.112Z,23.55
2023-05-25T13:04:44.690Z,23.87
2023-05-25T13:07:20.462Z,24.53
2023-05-25T13:09:49.206Z,24.06
2023-05-25T13:12:21.607Z,24.66
2023-05-25T13:14:56.234Z,24.01
2023-05-25T13:17:33.475Z,24.36
2023-05-25T13:20:11.064Z,24.69
2023-05-25T13:22:47.114Z,24.81
2023-05-25T13:25:19.470Z,24.94
2023-05-25T13:27:53.172Z,24.76
2023-05-25T13:30:30.824Z,25.24
2023-05-25T13:33:07.761Z,24.61
2023-05-25T13:35:52.207Z,24.87
2023-05-25T13:38:23.817Z,24.99
2023-05-25T13:40:52.510Z,25.61
2023-05-25T13:43:26.551Z,25.82
2023-05-25T13:46:03.855Z,25.58
2023-05-25T13:48:35.612Z,25.87
2023-05-25T13:51:07.316Z,25.76
2023-05-25T13:53:36.881Z,26.37
2023-05-25T13:56:08.153Z,25.73
2023-05-25T13:58:40.508Z,26.19
2023-05-25T14:01:18.087Z,26.42
2023-05-25T14:03:51.885Z,26.23
2023-05-25T14:06:33.867Z,26.28
2023-05-25T14:09:05.688Z,26.51
2023-05-25T14:11:36.519Z,26.63
2023-05-25T14:14:13.670Z,25.45
2023-05-25T14:16:45.761Z,26.61
2023-05-25T14:19:18.798Z,26.80
2023-05-25T14:22:03.707Z,26.54
2023-05-25T14:24:42.718Z,27.17
2023-05-25T14:27:10.849Z,27.32
2023-05-25T14:29:41.309Z,26.63
2023-05-25T14:32:21.037Z,26.98
2023-05-25T14:34:55.722Z,26.53
2023-05-25T14:37:26.367Z,26.64
2023-05-25T14:40:00.692Z,27.38
2023-05-25T14:42:32.641Z,27.02
2023-05-25T14:45:01.809Z,25.95
2023-05-25T14:47:36.430Z,26.69
2023-05-25T14:50:08.631Z,26.06
2023-05-25T14:52:37.568Z,26.58
2023-05-25T14:55:07.802Z,26.15
2023-05-25T14:57:38.615Z,26.33
2023-05-25T15:00:09.266Z,27.13
2023-05-25T15:02:40.294Z,27.42
2023-05-25T15:05:15.485Z,27.65
2023-05-25T15:07:54.920Z,28.38
2023-05-25T15:10:26.578Z,26.64
2023-05-25T15:12:55.334Z,27.47
2023-05-25T15:15:25.999Z,28.01
2023-05-25T15:17:55.730Z,27.48
2023-05-25T15:20:32.693Z,27.45
2023-05-25T15:23:09.274Z,28.28
2023-05-25T15:25:39.638Z,27.61
2023-05-25T15:28:11.522Z,26.96
2023-05-25T15:30:42.722Z,27.25
2023-05-25T15:33:29.923Z,26.74
2023-05-25T15:36:14.672Z,27.50
2023-05-25T15:38:44.488Z,26.42
2023-05-25T15:41:17.738Z,27.44
2023-05-25T15:44:00.839Z,27.16
2023-05-25T15:46:33.195Z,26.89
2023-05-25T15:49:10.933Z,27.07
2023-05-25T15:51:45.209Z,27.37
2023-05-25T15:54:19.076Z,26.84
2023-05-25T15:56:49.770Z,27.40
2023-05-25T15:59:23.898Z,26.14
2023-05-25T16:01:52.496Z,26.65
2023-05-25T16:04:29.089Z,26.69
2023-05-25T16:07:00.705Z,27.46
2023-05-25T16:09:39.014Z,27.81
2023-05-25T16:12:18.350Z,27.45
2023-05-25T16:14:48.911Z,27.52
2023-05-25T16:17:18.830Z,28.04
2023-05-25T16:20:00.255Z,27.82
2023-05-25T16:22:28.549Z,27.43
2023-05-25T16:25:04.850Z,27.50
2023-05-25T16:27:36.140Z,26.95
2023-05-25T16:30:05.000Z,26.34
2023-05-25T16:32:39.030Z,26.15
2023-05-25T16:35:23.512Z,26.81
2023-05-25T16:37:54.808Z,26.39
2023-05-25T16:40:23.929Z,26.32
2023-05-25T16:43:03.447Z,26.54
2023-05-25T16:45:34.680Z,27.23
2023-05-25T16:48:12.108Z,27.22
2023-05-25T16:50:54.297Z,26.98
2023-05-25T16:53:27.419Z,27.34
2023-05-25T16:56:01.994Z,27.85
2023-05-25T16:58:40.814Z,28.19
2023-05-25T17:01:11.489Z,27.83
2023-05-25T17:03:44.980Z,27.84
2023-05-25T17:06:19.773Z,26.84
2023-05-25T17:08:58.659Z,27.33
2023-05-25T17:11:32.730Z,26.51
2023-05-25T17:14:07.006Z,26.51
2023-05-25T17:16:37.924Z,26.53
2023-05-25T17:19:18.766Z,26.30
2023-05-25T17:22:01.542Z,26.23
2023-05-25T17:24:43.610Z,26.38
2023-05-25T17:27:27.341Z,26.60
2023-05-25T17:29:58.429Z,26.37
2023-05-25T17:32:38.484Z,26.33
2023-05-25T17:35:08.810Z,26.18
2023-05-25T17:37:52.066Z,25.85
2023-05-25T17:40:21.571Z,25.71
2023-05-25T17:42:50.054Z,25.19
2023-05-25T17:45:22.074Z,25.07
2023-05-25T17:47:56.493Z,24.44
2023-05-25T17:50:28.838Z,24.50
2023-05-25T17:53:10.814Z,24.34
2023-05-25T17:55:40.347Z,24.02
2023-05-25T17:58:20.819Z,23.85
2023-05-25T18:00:52.261Z,23.83
2023-05-25T18:03:30.652Z,23.60
2023-05-25T18:06:02.570Z,23.49
2023-05-25T18:08:34.002Z,23.44
2023-05-25T18:11:04.139Z,23.37
2023-05-25T18:13:38.802Z,23.30
2023-05-25T18:16:18.503Z,23.12
2023-05-25T18:18:48.698Z,23.12
2023-05-25T18:21:20.233Z,23.14
2023-05-25T18:23:52.317Z,23.07
2023-05-25T18:26:24.246Z,23.04
2023-05-25T18:28:54.300Z,22.97
2023-05-25T18:31:25.837Z,22.84
2023-05-25T18:33:57.498Z,22.73
2023-05-25T18:36:27.154Z,22.82
2023-05-25T18:39:00.142Z,22.92
2023-05-25T18:41:30.374Z,22.58
2023-05-25T18:44:09.271Z,22.62
2023-05-25T18:46:41.160Z,22.50
2023-05-25T18:49:12.403Z,22.61
2023-05-25T18:51:43.010Z,22.47
2023-05-25T18:54:24.696Z,22.40
2023-05-25T18:56:56.529Z,22.35
2023-05-25T18:59:32.992Z,22.36
2023-05-25T19:02:02.734Z,22.32
2023-05-25T19:04:33.941Z,22.38
2023-05-25T19:07:03.011Z,22.35
2023-05-25T19:09:42.684Z,22.40
2023-05-25T19:12:16.151Z,22.26
2023-05-25T19:14:51.661Z,22.30
2023-05-25T19:17:24.071Z,22.20
2023-05-25T19:19:58.622Z,22.25
2023-05-25T19:22:31.374Z,22.22
2023-05-25T19:25:06.134Z,22.10
2023-05-25T19:27:35.720Z,22.11
2023-05-25T19:30:08.714Z,22.05
2023-05-25T19:32:44.288Z,22.03
2023-05-25T19:35:21.450Z,21.98
2023-05-25T19:37:51.150Z,21.97
2023-05-25T19:40:37.797Z,21.96
2023-05-25T19:43:07.546Z,21.89
2023-05-25T19:45:44.392Z,21.93
2023-05-25T19:48:27.202Z,21.79
2023-05-25T19:50:58.269Z,21.71
2023-05-25T19:53:28.431Z,21.72
2023-05-25T19:56:07.269Z,21.76
2023-05-25T19:58:35.916Z,21.75
2023-05-25T20:01:09.940Z,21.67
2023-05-25T20:03:43.568Z,21.63
2023-05-25T20:06:18.403Z,21.61
2023-05-25T20:08:49.688Z,21.46
2023-05-25T20:11:33.012Z,21.52
2023-05-25T20:14:01.885Z,21.45
2023-05-25T20:16:41.032Z,21.50
2023-05-25T20:19:12.762Z,21.35
2023-05-25T20:21:44.701Z,21.24
2023-05-25T20:24:16.218Z,21.36
2023-05-25T20:26:48.416Z,21.06
2023-05-25T20:29:20.478Z,21.21
2023-05-25T20:31:50.242Z,21.25
2023-05-25T20:34:21.043Z,21.22
2023-05-25T20:36:58.975Z,21.25
2023-05-25T20:39:27.819Z,21.12
2023-05-25T20:42:06.923Z,21.20
2023-05-25T20:44:36.443Z,21.05
2023-05-25T20:47:04.854Z,21.00
2023-05-25T20:49:36.212Z,21.04
2023-05-25T20:52:13.845Z,20.88
2023-05-25T20:54:44.865Z,20.77
2023-05-25T20:57:18.977Z,20.44
2023-05-25T20:59:53.868Z,20.46
2023-05-25T21:05:09.095Z,20.37
2023-05-25T21:07:39.097Z,20.23
2023-05-25T21:10:14.774Z,20.31
2023-05-25T21:12:51.865Z,20.22
2023-05-25T21:15:25.432Z,20.14
2023-05-25T21:18:11.106Z,20.07
2023-05-25T21:20:42.105Z,20.00
2023-05-25T21:23:16.523Z,19.95
2023-05-25T21:25:49.417Z,19.88
2023-05-25T21:28:30.870Z,19.75
2023-05-25T21:31:01.960Z,19.48
2023-05-25T21:33:35.682Z,19.64
2023-05-25T21:36:10.838Z,19.51
2023-05-25T21:38:41.329Z,19.59
2023-05-25T21:41:11.343Z,19.47
2023-05-25T21:43:44.060Z,19.26
2023-05-25T21:46:20.507Z,19.45
2023-05-25T21:48:51.028Z,19.12
2023-05-25T21:51:22.738Z,19.02
2023-05-25T21:53:51.043Z,18.98
2023-05-25T21:56:27.568Z,18.94
2023-05-25T21:59:10.300Z,18.79
2023-05-25T22:01:44.141Z,18.82
2023-05-25T22:04:14.100Z,18.80
2023-05-25T22:06:43.158Z,18.75
2023-05-25T22:09:19.300Z,18.74
2023-05-25T22:11:56.612Z,18.64
2023-05-25T22:14:28.500Z,18.51
2023-05-25T22:16:59.497Z,18.59
2023-05-25T22:19:27.965Z,18.66
2023-05-25T22:21:58.450Z,18.59
2023-05-25T22:24:29.384Z,18.43
2023-05-25T22:27:02.970Z,18.52
2023-05-25T22:29:36.448Z,18.49
2023-05-25T22:32:10.906Z,18.40
2023-05-25T22:34:43.341Z,18.57
2023-05-25T22:37:17.528Z,18.48
2023-05-25T22:39:48.887Z,18.44
2023-05-25T22:42:17.447Z,18.37
2023-05-25T22:44:52.225Z,18.21
2023-05-25T22:47:22.124Z,18.25
2023-05-25T22:49:53.999Z,17.91
2023-05-25T22:52:34.394Z,18.10
2023-05-25T22:55:05.093Z,18.16
2023-05-25T22:57:36.848Z,18.23
2023-05-25T23:00:26.478Z,18.14
2023-05-25T23:03:07.224Z,18.16
2023-05-25T23:05:49.830Z,18.07
2023-05-25T23:08:31.195Z,17.81
2023-05-25T23:11:07.573Z,17.51
2023-05-25T23:13:39.355Z,17.50
2023-05-25T23:16:40.900Z,17.57
2023-05-25T23:19:15.183Z,17.55
2023-05-25T23:21:49.002Z,17.58
2023-05-25T23:24:20.762Z,17.47
2023-05-25T23:26:50.759Z,17.66
2023-05-25T23:29:22.664Z,17.75
2023-05-25T23:31:55.701Z,17.88
2023-05-25T23:34:29.085Z,17.82
2023-05-25T23:37:09.926Z,17.92
2023-05-25T23:39:41.966Z,17.63
2023-05-25T23:42:15.538Z,17.77
2023-05-25T23:44:49.255Z,17.61
2023-05-25T23:47:35.516Z,17.75
2023-05-25T23:50:04.268Z,17.52
2023-05-25T23:52:40.738Z,17.81
2023-05-25T23:55:10.037Z,17.81
2023-05-25T23:57:44.924Z,17.63
